Terminal Aerodrome Forecast
Issued by NWS Bismarck, ND

Home | Current Version | Previous Version | Text Only | Print | Product List | Glossary Off
Versions: 1 2 3 4 5 6 7 8 9 10 11 12 13 14 15 16 17 18 19 20 21

000
FTUS43 KBIS 272217 AAC
TAFISN
TAF AMD
KISN 272217Z 2722/2818 04010KT P6SM VCSH FEW100
     FM280200 32008KT P6SM SCT250
     FM281700 32020G28KT P6SM SCT140=

USA.gov is the U.S. government's official web portal to all federal, state and local government web resources and services.